Time;durP1;ratioP1;P1;durP2;ratioP2;P2;SDS_P1;SDS_P2;PMS_P1;PMS_P2;Temp;Humidity;BMP_temperature;BMP_pressure;BME280_temperature;BME280_humidity;BME280_pressure;Samples;Min_cycle;Max_cycle;Signal;HPM_P1;HPM_P2
2022/05/23 00:01:19;;;;;;;;;5.75;5.00;;;;;21.99;50.97;99779.63;5036560;28;45952;-78
2022/05/23 00:03:45;;;;;;;;;4.25;4.25;;;;;21.94;50.92;99781.22;5050244;28;46539;-78
2022/05/23 00:06:16;;;;;;;;;5.00;4.75;;;;;21.93;50.91;99793.75;5042937;28;45949;-79
2022/05/23 00:08:42;;;;;;;;;4.75;4.00;;;;;21.89;50.82;99794.34;5051697;28;45801;-76
2022/05/23 00:11:07;;;;;;;;;4.00;4.00;;;;;21.85;51.19;99801.13;5042987;28;45842;-76
2022/05/23 00:13:33;;;;;;;;;3.75;3.75;;;;;21.82;51.18;99797.00;5051071;28;45736;-75
2022/05/23 00:15:59;;;;;;;;;4.50;4.25;;;;;21.79;51.02;99786.75;5049314;28;46017;-80
2022/05/23 00:18:24;;;;;;;;;4.50;4.00;;;;;21.79;51.26;99776.06;5051554;28;45809;-79
2022/05/23 00:20:50;;;;;;;;;4.25;3.25;;;;;21.72;50.85;99772.56;5051507;28;45621;-78
2022/05/23 00:23:15;;;;;;;;;3.00;3.00;;;;;21.77;50.74;99778.09;5051159;28;45813;-80
2022/05/23 00:25:40;;;;;;;;;4.75;4.00;;;;;21.75;51.29;99766.84;5048996;28;46310;-79
2022/05/23 00:28:06;;;;;;;;;4.75;4.00;;;;;21.70;51.35;99758.63;5033455;28;45984;-78
2022/05/23 00:30:32;;;;;;;;;4.75;4.00;;;;;21.67;51.31;99764.34;5051346;28;45600;-77
2022/05/23 00:35:48;;;;;;;;;4.00;4.00;;;;;21.66;51.69;99755.53;5051225;28;46002;-79
2022/05/23 00:38:14;;;;;;;;;4.50;3.75;;;;;21.65;51.25;99739.72;5032853;28;45749;-79
2022/05/23 00:43:59;;;;;;;;;4.00;3.50;;;;;21.68;51.66;99740.16;5045658;28;46085;-79
2022/05/23 00:46:24;;;;;;;;;3.00;3.00;;;;;21.69;51.52;99728.47;5050137;28;46321;-78
2022/05/23 00:48:51;;;;;;;;;4.00;4.00;;;;;21.71;51.26;99721.06;5051213;28;45779;-78
2022/05/23 00:51:18;;;;;;;;;2.75;2.75;;;;;21.71;51.28;99718.41;5050885;28;45755;-77
2022/05/23 00:53:59;;;;;;;;;3.75;3.75;;;;;21.71;51.16;99714.91;5050787;28;46493;-78
2022/05/23 00:56:30;;;;;;;;;3.50;3.00;;;;;21.72;51.23;99714.72;5047032;28;46361;-78
2022/05/23 00:59:01;;;;;;;;;4.25;4.00;;;;;21.75;51.64;99724.19;5050546;28;46138;-78
2022/05/23 01:01:32;;;;;;;;;4.75;4.50;;;;;21.66;51.47;99710.19;5048660;28;45775;-79
2022/05/23 01:03:57;;;;;;;;;4.00;3.75;;;;;21.75;51.44;99718.84;5053948;28;46832;-79
2022/05/23 01:06:23;;;;;;;;;5.75;4.75;;;;;21.72;51.30;99705.91;5054079;28;46046;-79
2022/05/23 01:08:54;;;;;;;;;4.50;4.50;;;;;21.76;51.02;99694.63;5053591;28;45690;-78
2022/05/23 01:11:19;;;;;;;;;4.00;3.00;;;;;21.73;51.21;99684.38;5052623;28;45793;-77
2022/05/23 01:13:45;;;;;;;;;3.25;3.00;;;;;21.69;51.51;99669.00;5052325;28;46728;-80
2022/05/23 01:16:11;;;;;;;;;4.00;3.00;;;;;21.71;51.53;99667.75;5053957;28;47166;-79
2022/05/23 01:18:37;;;;;;;;;3.50;3.50;;;;;21.72;51.15;99656.06;5052220;28;46852;-79
2022/05/23 01:21:05;;;;;;;;;4.00;4.00;;;;;21.69;51.24;99645.81;5031350;28;46861;-78
2022/05/23 01:23:57;;;;;;;;;4.00;4.00;;;;;21.72;51.29;99642.72;5052443;28;46274;-78
2022/05/23 01:26:23;;;;;;;;;2.25;2.25;;;;;21.61;51.51;99618.50;5048364;28;46205;-78
2022/05/23 01:28:48;;;;;;;;;3.25;3.00;;;;;21.68;51.81;99622.84;5043487;28;45758;-79
2022/05/23 01:31:15;;;;;;;;;3.50;3.50;;;;;21.66;51.71;99621.38;5051766;28;46008;-78
2022/05/23 01:33:41;;;;;;;;;4.00;4.00;;;;;21.60;51.71;99624.88;5051758;28;46861;-78
2022/05/23 01:36:13;;;;;;;;;3.75;3.00;;;;;21.52;51.58;99614.41;5053771;28;45894;-77
2022/05/23 01:38:39;;;;;;;;;2.75;2.50;;;;;21.50;51.79;99613.78;5050284;28;46013;-78
2022/05/23 01:41:06;;;;;;;;;2.75;2.75;;;;;21.54;51.71;99612.38;5051084;28;45756;-79
2022/05/23 01:43:32;;;;;;;;;4.00;4.00;;;;;21.46;51.75;99596.56;5053935;28;46883;-78
2022/05/23 01:45:58;;;;;;;;;4.00;3.75;;;;;21.47;52.06;99584.88;5053478;28;46562;-79
2022/05/23 01:48:24;;;;;;;;;3.00;3.00;;;;;21.46;51.76;99576.06;5053537;28;45763;-79
2022/05/23 01:50:50;;;;;;;;;4.50;4.25;;;;;21.38;51.97;99559.47;5050335;28;45812;-79
2022/05/23 01:53:15;;;;;;;;;2.50;2.50;;;;;21.45;51.87;99563.75;5052039;28;45726;-79
2022/05/23 01:55:41;;;;;;;;;3.50;3.25;;;;;21.35;51.94;99555.34;5053392;28;45653;-79
2022/05/23 01:58:06;;;;;;;;;2.75;2.50;;;;;21.36;51.92;99562.34;5049991;28;45751;-78
2022/05/23 02:03:16;;;;;;;;;5.75;5.50;;;;;21.34;51.71;99551.03;5053227;28;45807;-79
2022/05/23 02:05:41;;;;;;;;;4.50;4.00;;;;;21.35;51.80;99548.19;5053042;28;46249;-78
2022/05/23 02:08:07;;;;;;;;;3.25;2.50;;;;;21.31;52.02;99543.47;5051879;28;45642;-77
2022/05/23 02:10:32;;;;;;;;;3.00;3.00;;;;;21.32;52.15;99547.78;5033896;28;45706;-79
2022/05/23 02:13:00;;;;;;;;;4.00;3.50;;;;;21.33;52.09;99552.88;5053230;28;46626;-79
2022/05/23 02:15:28;;;;;;;;;4.00;4.00;;;;;21.33;52.27;99557.38;5049904;28;46353;-79
2022/05/23 02:17:56;;;;;;;;;5.00;4.50;;;;;21.36;51.97;99573.00;5028558;28;45827;-79
2022/05/23 02:20:21;;;;;;;;;4.00;4.00;;;;;21.26;51.90;99561.91;5052535;28;45561;-78
2022/05/23 02:22:47;;;;;;;;;2.00;1.50;;;;;21.33;51.94;99578.72;5052868;28;45832;-80
2022/05/23 02:25:13;;;;;;;;;4.75;3.75;;;;;21.31;51.75;99573.59;5046940;28;45729;-79
2022/05/23 02:27:38;;;;;;;;;3.00;3.00;;;;;21.28;52.10;99574.00;5053302;28;46379;-78
2022/05/23 02:30:04;;;;;;;;;3.50;3.00;;;;;21.34;52.06;99580.34;5053528;28;46800;-79
2022/05/23 02:32:29;;;;;;;;;2.75;2.75;;;;;21.33;51.89;99574.22;5049779;28;46980;-78
2022/05/23 02:34:55;;;;;;;;;3.00;3.00;;;;;21.33;51.95;99579.53;5051316;28;46220;-79
2022/05/23 02:37:20;;;;;;;;;4.00;3.25;;;;;21.29;51.94;99575.66;5052449;28;45792;-80
2022/05/23 02:39:46;;;;;;;;;3.75;2.50;;;;;21.32;51.95;99579.75;5052956;28;45995;-79
2022/05/23 02:42:11;;;;;;;;;3.00;3.00;;;;;21.36;51.97;99581.00;5051669;28;46714;-79
2022/05/23 02:44:37;;;;;;;;;2.75;2.75;;;;;21.34;52.00;99588.34;5049682;28;46812;-79
2022/05/23 02:47:03;;;;;;;;;4.00;4.00;;;;;21.33;52.22;99581.38;5052660;28;46195;-79
2022/05/23 02:49:28;;;;;;;;;3.75;3.00;;;;;21.31;52.11;99572.78;5050131;28;45650;-80
2022/05/23 02:51:54;;;;;;;;;4.50;3.75;;;;;21.32;52.25;99567.22;5045278;28;45778;-80
2022/05/23 02:54:20;;;;;;;;;5.25;4.00;;;;;21.30;52.10;99571.97;5051964;28;45933;-79
2022/05/23 02:56:45;;;;;;;;;4.00;4.00;;;;;21.27;52.12;99560.88;5054955;28;45722;-79
2022/05/23 02:59:11;;;;;;;;;3.00;3.00;;;;;21.35;52.42;99571.34;5053536;28;45657;-80
2022/05/23 03:04:20;;;;;;;;;4.25;4.00;;;;;21.32;52.48;99574.44;5051388;28;46061;-79
2022/05/23 03:06:46;;;;;;;;;3.50;3.25;;;;;21.34;52.55;99577.69;5054655;28;45793;-79
2022/05/23 03:09:11;;;;;;;;;3.50;3.25;;;;;21.31;52.55;99592.25;5049799;28;45843;-80
2022/05/23 03:11:37;;;;;;;;;3.75;3.75;;;;;21.31;52.23;99591.44;5049748;28;47111;-80
2022/05/23 03:14:03;;;;;;;;;3.00;3.00;;;;;21.30;52.36;99592.44;5050118;28;45830;-79
2022/05/23 03:16:28;;;;;;;;;4.75;4.00;;;;;21.35;52.31;99612.16;5046560;28;45555;-79
2022/05/23 03:18:54;;;;;;;;;2.75;2.75;;;;;21.36;52.65;99604.97;5053283;28;45799;-81
2022/05/23 03:27:02;;;;;;;;;5.00;4.00;;;;;21.35;52.42;99574.00;5008220;28;45895;-81
2022/05/23 03:29:29;;;;;;;;;4.50;4.25;;;;;21.37;52.46;99568.47;5052858;28;45764;-80
2022/05/23 03:31:55;;;;;;;;;3.75;3.75;;;;;21.32;52.39;99559.22;5050505;28;46551;-79
2022/05/23 03:34:21;;;;;;;;;3.75;3.00;;;;;21.27;52.30;99542.22;5047250;28;45686;-80
2022/05/23 03:36:46;;;;;;;;;2.75;2.75;;;;;21.30;52.48;99542.66;5052972;28;46111;-80
2022/05/23 03:39:12;;;;;;;;;4.00;4.00;;;;;21.33;52.59;99533.41;5052333;28;45560;-78
2022/05/23 03:41:38;;;;;;;;;4.00;4.00;;;;;21.33;52.70;99528.91;5052196;28;45616;-80
2022/05/23 03:44:07;;;;;;;;;5.75;4.25;;;;;21.28;52.96;99531.38;5050259;28;46179;-79
2022/05/23 03:46:35;;;;;;;;;2.75;2.75;;;;;21.30;52.85;99533.84;5041966;28;45674;-80
2022/05/23 03:49:01;;;;;;;;;4.75;4.00;;;;;21.32;53.52;99527.25;5052642;28;46194;-78
2022/05/23 03:51:27;;;;;;;;;4.25;4.25;;;;;21.29;52.77;99526.84;5051964;28;46458;-80
2022/05/23 03:53:52;;;;;;;;;4.25;4.00;;;;;21.27;53.79;99536.88;5051643;28;46140;-80
2022/05/23 03:56:17;;;;;;;;;3.00;3.00;;;;;21.27;53.56;99536.88;5051735;28;45903;-80
2022/05/23 03:58:43;;;;;;;;;3.50;3.00;;;;;21.20;53.53;99528.09;5038431;28;45633;-80
2022/05/23 04:01:18;;;;;;;;;5.00;4.25;;;;;21.23;53.47;99539.16;5031699;28;45677;-81
2022/05/23 04:03:43;;;;;;;;;4.50;3.50;;;;;21.15;53.48;99520.72;5030505;28;46417;-80
2022/05/23 04:06:09;;;;;;;;;3.50;3.50;;;;;21.19;53.62;99521.94;5052004;28;45620;-80
2022/05/23 04:08:35;;;;;;;;;5.25;4.00;;;;;21.08;54.04;99489.72;5051990;28;46017;-81
2022/05/23 04:11:02;;;;;;;;;4.50;4.00;;;;;21.17;54.61;99496.50;5024965;28;47660;-80
2022/05/23 04:13:28;;;;;;;;;4.75;4.25;;;;;21.18;54.45;99487.50;5051533;28;46056;-79
2022/05/23 04:15:54;;;;;;;;;3.50;3.25;;;;;21.07;54.18;99475.59;5051005;28;45740;-79
2022/05/23 04:18:19;;;;;;;;;3.50;3.50;;;;;21.12;54.38;99482.97;5051975;28;46050;-79
2022/05/23 04:20:45;;;;;;;;;6.00;5.50;;;;;21.11;54.34;99486.63;5049854;28;46659;-78
2022/05/23 04:23:11;;;;;;;;;4.50;4.50;;;;;21.09;54.80;99473.53;5051707;28;45731;-77
2022/05/23 04:25:40;;;;;;;;;6.25;3.75;;;;;21.03;54.62;99466.38;5051316;28;45705;-78
2022/05/23 04:28:06;;;;;;;;;6.00;5.00;;;;;21.00;54.59;99452.66;5051266;28;45624;-79
2022/05/23 04:30:31;;;;;;;;;6.00;5.25;;;;;20.94;55.04;99436.44;5051226;28;46592;-79
2022/05/23 04:35:41;;;;;;;;;5.00;5.00;;;;;20.95;55.80;99434.59;5051436;28;45692;-78
2022/05/23 04:38:07;;;;;;;;;5.00;4.00;;;;;20.92;55.35;99427.84;5053005;28;45846;-79
2022/05/23 04:40:32;;;;;;;;;5.50;5.50;;;;;20.93;55.89;99426.84;5054006;28;45643;-81
2022/05/23 04:42:57;;;;;;;;;6.00;5.00;;;;;20.86;55.88;99426.00;5055042;28;45803;-80
2022/05/23 04:45:23;;;;;;;;;6.75;5.00;;;;;20.90;56.07;99456.50;5052842;28;45724;-80
2022/05/23 04:50:33;;;;;;;;;6.25;5.75;;;;;20.86;56.14;99449.16;5054428;28;45696;-79
2022/05/23 04:53:01;;;;;;;;;4.75;4.75;;;;;20.86;56.72;99455.28;5055079;28;45854;-79
2022/05/23 04:55:27;;;;;;;;;5.75;5.00;;;;;20.87;56.59;99459.59;5054256;28;46188;-79
2022/05/23 04:57:54;;;;;;;;;33.50;29.25;;;;;20.84;56.53;99433.38;5055144;28;45715;-79
2022/05/23 05:00:21;;;;;;;;;5.00;5.00;;;;;20.84;56.99;99433.38;5042651;28;46420;-79
2022/05/23 05:02:48;;;;;;;;;6.00;5.50;;;;;20.85;56.77;99437.66;5047075;28;48016;-78
2022/05/23 05:05:16;;;;;;;;;17.00;15.00;;;;;20.83;56.87;99426.44;5043095;28;45778;-78
2022/05/23 05:07:41;;;;;;;;;6.75;6.50;;;;;20.77;56.81;99399.78;5054274;28;45596;-78
2022/05/23 05:10:07;;;;;;;;;4.75;4.75;;;;;20.72;57.00;99391.59;5054259;28;45908;-78
2022/05/23 05:12:33;;;;;;;;;6.00;6.00;;;;;20.80;57.15;99407.34;5054728;28;46859;-78
2022/05/23 05:14:58;;;;;;;;;6.75;5.00;;;;;20.78;57.12;99398.78;5044515;28;45568;-77
2022/05/23 05:17:24;;;;;;;;;6.50;5.00;;;;;20.74;56.99;99409.00;5054775;28;46219;-78
2022/05/23 05:19:50;;;;;;;;;6.00;6.00;;;;;20.70;56.80;99405.09;5053616;28;46589;-79
2022/05/23 05:22:15;;;;;;;;;5.75;5.50;;;;;20.73;57.50;99425.19;5054550;28;45764;-78
2022/05/23 05:24:41;;;;;;;;;6.00;5.00;;;;;20.72;57.16;99403.06;5053828;28;46203;-80
2022/05/23 05:27:06;;;;;;;;;9.25;8.00;;;;;20.68;57.48;99383.19;5054996;28;45625;-79
2022/05/23 05:29:32;;;;;;;;;18.75;17.50;;;;;20.73;57.28;99393.25;5034190;28;46374;-79
2022/05/23 05:32:13;;;;;;;;;7.00;6.25;;;;;20.70;57.47;99391.78;5048631;28;46135;-78
2022/05/23 05:34:44;;;;;;;;;6.50;5.75;;;;;20.67;57.44;99389.56;5053043;28;45630;-81
2022/05/23 05:37:17;;;;;;;;;8.50;6.75;;;;;20.69;58.02;99392.00;5054462;28;45814;-78
2022/05/23 05:39:45;;;;;;;;;9.25;9.00;;;;;20.78;57.75;99439.50;5053528;28;46454;-79
2022/05/23 05:42:26;;;;;;;;;7.00;7.00;;;;;20.80;58.06;99452.63;5054051;28;46672;-79
2022/05/23 05:45:01;;;;;;;;;6.00;5.00;;;;;20.80;58.11;99449.94;5046872;28;45956;-80
2022/05/23 05:47:31;;;;;;;;;6.00;6.00;;;;;20.80;57.83;99429.47;5051983;28;45782;-79
2022/05/23 05:50:01;;;;;;;;;6.50;6.25;;;;;20.80;58.12;99415.34;5036227;28;46529;-79
2022/05/23 05:52:31;;;;;;;;;7.00;6.50;;;;;20.87;58.27;99422.31;5036058;28;47798;-80
2022/05/23 05:54:58;;;;;;;;;6.50;6.50;;;;;20.81;58.38;99403.69;5046993;28;45695;-78
2022/05/23 05:57:24;;;;;;;;;8.50;7.25;;;;;20.84;58.12;99398.75;5049341;28;45717;-79
2022/05/23 05:59:50;;;;;;;;;8.00;6.00;;;;;20.90;57.88;99399.78;5036934;28;46417;-79
2022/05/23 06:02:16;;;;;;;;;7.00;6.00;;;;;20.95;57.84;99402.63;5050975;28;45990;-79
2022/05/23 06:04:41;;;;;;;;;5.75;5.75;;;;;20.92;57.85;99397.75;5051784;28;46227;-79
2022/05/23 06:12:34;;;;;;;;;7.25;6.75;;;;;20.95;57.70;99410.63;5051652;28;45915;-80
2022/05/23 06:15:01;;;;;;;;;9.25;8.25;;;;;21.02;58.43;99435.44;5050977;28;45750;-81
2022/05/23 06:17:26;;;;;;;;;6.00;6.00;;;;;21.00;58.42;99434.00;5041292;28;45782;-80
2022/05/23 06:19:52;;;;;;;;;7.00;6.75;;;;;20.95;58.22;99424.78;5042703;28;46252;-80
2022/05/23 06:22:18;;;;;;;;;7.50;7.50;;;;;21.06;58.65;99439.31;5045807;28;45854;-82
2022/05/23 06:24:49;;;;;;;;;7.50;6.75;;;;;21.05;57.87;99427.03;5043659;28;45820;-83
2022/05/23 06:27:14;;;;;;;;;6.25;6.00;;;;;21.02;58.10;99407.97;5043913;28;46056;-83
2022/05/23 06:29:40;;;;;;;;;6.00;6.00;;;;;21.08;58.51;99409.81;5031255;28;48145;-84
2022/05/23 06:32:05;;;;;;;;;6.00;6.00;;;;;21.06;58.07;99399.34;5046168;28;46002;-84
2022/05/23 06:34:31;;;;;;;;;7.50;7.25;;;;;21.09;58.36;99398.97;5034587;28;45833;-81
2022/05/23 06:36:57;;;;;;;;;8.00;6.75;;;;;21.10;58.87;99381.97;5053329;28;45715;-82
2022/05/23 06:39:23;;;;;;;;;6.00;5.75;;;;;21.10;58.65;99365.97;5052473;28;46724;-80
2022/05/23 06:41:49;;;;;;;;;6.50;6.50;;;;;21.06;58.87;99354.06;5052530;28;46542;-81
2022/05/23 06:44:14;;;;;;;;;10.00;8.00;;;;;21.15;58.87;99384.03;5034670;28;45727;-81
2022/05/23 06:46:40;;;;;;;;;7.75;7.75;;;;;21.16;58.64;99377.69;5053410;28;45698;-81
2022/05/23 06:49:06;;;;;;;;;8.00;7.75;;;;;21.17;58.50;99371.31;5034364;28;46938;-82
2022/05/23 06:51:33;;;;;;;;;7.75;7.50;;;;;21.12;58.99;99353.25;5052918;28;45665;-82
2022/05/23 06:53:58;;;;;;;;;6.75;6.75;;;;;21.13;58.86;99357.56;5033958;28;45605;-82
2022/05/23 06:56:24;;;;;;;;;7.00;6.25;;;;;21.13;58.74;99352.22;5035208;28;45956;-84
2022/05/23 06:58:49;;;;;;;;;13.00;11.50;;;;;21.16;59.13;99351.84;5034636;28;48037;-84
2022/05/23 07:01:15;;;;;;;;;11.00;10.00;;;;;21.24;58.84;99370.28;5052181;28;46492;-84
2022/05/23 07:03:41;;;;;;;;;6.75;6.75;;;;;21.23;59.16;99357.97;5054029;28;45741;-81
2022/05/23 07:14:20;;;;;;;;;7.25;6.50;;;;;21.28;59.23;99371.50;5050789;28;45783;-79
2022/05/23 07:16:47;;;;;;;;;5.75;5.75;;;;;21.30;59.34;99371.28;5052389;28;46023;-82
2022/05/23 07:19:13;;;;;;;;;7.75;7.25;;;;;21.28;59.59;99360.84;5051741;28;46662;-79
2022/05/23 07:21:39;;;;;;;;;8.25;7.25;;;;;21.31;59.79;99371.09;5051803;28;46261;-79
2022/05/23 07:24:04;;;;;;;;;7.50;7.50;;;;;21.32;59.75;99370.03;5051777;28;45973;-78
2022/05/23 07:26:30;;;;;;;;;7.75;7.75;;;;;21.32;59.49;99372.69;5052502;28;45945;-78
2022/05/23 07:28:57;;;;;;;;;10.00;8.00;;;;;21.28;59.83;99381.31;5051614;28;46272;-78
2022/05/23 07:31:23;;;;;;;;;13.00;11.75;;;;;21.32;59.89;99372.69;5033807;28;48089;-77
2022/05/23 07:33:49;;;;;;;;;8.00;7.75;;;;;21.33;59.88;99373.53;5052795;28;45757;-78
2022/05/23 07:36:15;;;;;;;;;7.50;7.00;;;;;21.28;59.86;99373.34;5053288;28;45855;-79
2022/05/23 07:38:41;;;;;;;;;8.75;8.00;;;;;21.32;59.86;99377.25;5045032;28;46591;-78
2022/05/23 07:41:09;;;;;;;;;7.50;7.25;;;;;21.31;60.71;99395.06;5051846;28;46326;-79
2022/05/23 07:43:36;;;;;;;;;10.25;8.75;;;;;21.35;60.61;99382.13;5052208;28;45707;-80
2022/05/23 07:46:09;;;;;;;;;10.50;9.25;;;;;21.34;60.38;99340.53;5052599;28;45789;-81
2022/05/23 07:48:48;;;;;;;;;8.75;8.25;;;;;21.30;60.74;99320.66;5051863;28;46607;-79
2022/05/23 07:51:16;;;;;;;;;12.25;10.25;;;;;21.35;61.34;99302.19;5051783;28;45998;-80
2022/05/23 08:01:54;;;;;;;;;11.25;9.00;;;;;21.43;61.49;99317.94;5051273;28;45932;-80
2022/05/23 08:04:21;;;;;;;;;9.75;9.00;;;;;21.48;61.26;99328.00;5050982;28;45800;-80
2022/05/23 08:06:47;;;;;;;;;9.50;8.75;;;;;21.50;61.35;99323.25;5049086;28;45705;-81
2022/05/23 08:09:13;;;;;;;;;8.00;7.25;;;;;21.54;61.70;99317.28;5051915;28;45899;-82
2022/05/23 08:11:40;;;;;;;;;11.75;9.00;;;;;21.59;62.08;99314.81;5050743;28;45895;-82
2022/05/23 08:14:06;;;;;;;;;12.75;11.75;;;;;21.58;62.40;99318.53;5051305;28;45865;-79
2022/05/23 08:16:32;;;;;;;;;11.50;10.75;;;;;21.60;62.38;99320.97;5051683;28;45792;-81
2022/05/23 08:19:02;;;;;;;;;12.25;10.00;;;;;21.65;62.58;99315.81;5049460;28;46386;-82
2022/05/23 08:21:28;;;;;;;;;12.00;11.25;;;;;21.65;62.87;99329.13;5051634;28;46057;-82
2022/05/23 08:23:54;;;;;;;;;11.50;9.00;;;;;21.61;62.88;99338.59;5049354;28;45831;-81
2022/05/23 08:26:19;;;;;;;;;14.00;11.00;;;;;21.56;62.99;99344.56;5051610;28;45800;-84
2022/05/23 08:28:46;;;;;;;;;11.75;11.75;;;;;21.60;63.11;99366.28;5033122;28;48225;-84
2022/05/23 08:31:11;;;;;;;;;11.25;10.00;;;;;21.52;64.66;99351.34;5053085;28;46185;-88
2022/05/23 08:33:37;;;;;;;;;12.50;11.50;;;;;21.39;65.32;99342.56;5053023;28;45811;-78
2022/05/23 08:36:02;;;;;;;;;9.25;9.25;;;;;21.34;65.53;99349.34;5051531;28;45580;-82
2022/05/23 08:38:28;;;;;;;;;11.00;10.75;;;;;21.26;65.11;99346.09;5051611;28;45687;-82
2022/05/23 08:41:11;;;;;;;;;12.75;10.75;;;;;21.14;65.89;99343.25;5049431;28;45963;-83
2022/05/23 08:43:52;;;;;;;;;12.00;12.00;;;;;21.00;66.01;99328.28;5050641;28;46712;-83
2022/05/23 08:46:45;;;;;;;;;12.75;12.50;;;;;20.97;65.52;99347.34;5048369;28;45688;-81
2022/05/23 08:49:29;;;;;;;;;11.50;10.00;;;;;20.91;66.05;99348.16;5029086;28;47763;-83
2022/05/23 08:52:08;;;;;;;;;10.25;10.25;;;;;20.84;65.84;99348.16;5051494;28;46078;-84
2022/05/23 08:55:01;;;;;;;;;10.75;9.25;;;;;20.73;65.80;99346.13;5051076;28;45707;-81
2022/05/23 08:57:50;;;;;;;;;12.75;12.25;;;;;20.70;65.78;99346.53;5051741;28;45597;-83
2022/05/23 09:00:20;;;;;;;;;13.00;11.25;;;;;20.56;65.78;99344.91;5046767;28;46886;-82
2022/05/23 09:02:51;;;;;;;;;13.00;11.00;;;;;20.51;66.13;99347.38;5051169;28;46050;-85
2022/05/23 09:05:32;;;;;;;;;12.25;10.50;;;;;20.48;65.67;99358.41;5051193;28;45764;-85
2022/05/23 09:08:01;;;;;;;;;12.00;12.00;;;;;20.32;65.74;99346.31;5051378;28;45744;-84
2022/05/23 09:10:40;;;;;;;;;12.75;11.75;;;;;20.25;65.47;99374.69;5050222;28;46588;-83
2022/05/23 09:13:08;;;;;;;;;13.25;13.00;;;;;20.10;65.53;99353.59;5032526;28;48073;-84
2022/05/23 09:15:34;;;;;;;;;13.25;12.75;;;;;20.02;66.01;99351.16;5051130;28;45757;-84
2022/05/23 09:18:04;;;;;;;;;14.50;13.75;;;;;20.00;66.45;99347.84;5051704;28;45708;-83
2022/05/23 09:20:40;;;;;;;;;14.25;14.25;;;;;20.00;65.93;99358.50;5037593;28;47570;-82
2022/05/23 09:23:20;;;;;;;;;16.50;14.75;;;;;19.97;65.81;99345.56;5052478;28;46394;-83
2022/05/23 09:25:50;;;;;;;;;16.25;15.75;;;;;19.93;65.52;99348.84;5055175;28;45591;-85
2022/05/23 09:28:25;;;;;;;;;16.75;16.00;;;;;19.90;66.19;99351.91;5054679;28;45514;-82
2022/05/23 09:30:58;;;;;;;;;14.25;13.50;;;;;19.89;65.95;99353.75;5054644;28;45640;-82
2022/05/23 09:33:27;;;;;;;;;13.00;13.00;;;;;19.86;66.35;99346.19;5051890;28;46362;-80
2022/05/23 09:36:09;;;;;;;;;16.00;15.75;;;;;19.77;66.03;99333.25;5051903;28;45775;-81
2022/05/23 09:38:54;;;;;;;;;16.00;16.00;;;;;19.78;65.85;99340.22;5054639;28;45951;-84
2022/05/23 09:49:54;;;;;;;;;12.75;12.00;;;;;19.86;65.71;99330.22;5052516;28;45752;-83
2022/05/23 09:52:31;;;;;;;;;17.00;14.75;;;;;19.88;65.49;99340.66;5053614;28;46314;-83
2022/05/23 09:55:08;;;;;;;;;19.00;18.00;;;;;19.85;64.73;99341.88;5053679;28;46172;-83
2022/05/23 09:57:36;;;;;;;;;16.75;15.75;;;;;19.85;65.25;99349.84;5052407;28;46080;-81
2022/05/23 10:00:05;;;;;;;;;15.00;15.00;;;;;19.87;65.07;99339.00;5053923;28;45957;-78
2022/05/23 10:02:31;;;;;;;;;19.25;18.50;;;;;19.89;65.16;99343.13;5052605;28;47509;-78
2022/05/23 10:04:57;;;;;;;;;18.00;17.50;;;;;19.93;64.54;99354.97;5053176;28;46092;-78
2022/05/23 10:07:35;;;;;;;;;16.00;15.50;;;;;19.90;64.70;99339.44;5052342;28;45717;-78
2022/05/23 10:10:18;;;;;;;;;17.25;16.75;;;;;19.88;64.44;99336.16;5053332;28;45963;-79
2022/05/23 10:12:43;;;;;;;;;20.50;19.50;;;;;19.87;64.10;99331.03;5053437;28;45751;-78
2022/05/23 10:15:17;;;;;;;;;19.25;18.00;;;;;19.88;63.98;99338.00;5053337;28;46173;-77
2022/05/23 10:17:43;;;;;;;;;22.25;21.75;;;;;19.75;64.03;99319.34;5036148;28;45698;-79
2022/05/23 10:20:34;;;;;;;;;19.25;18.00;;;;;19.83;64.14;99335.13;5050865;28;45741;-78
2022/05/23 10:23:07;;;;;;;;;21.00;19.50;;;;;19.78;64.20;99332.22;5054525;28;46568;-78
2022/05/23 10:25:43;;;;;;;;;21.00;19.75;;;;;19.72;64.36;99325.88;5054091;28;46050;-79
2022/05/23 10:28:14;;;;;;;;;19.50;19.50;;;;;19.78;64.59;99329.56;5053842;28;45664;-78
2022/05/23 10:30:47;;;;;;;;;21.25;20.75;;;;;19.78;64.27;99341.03;5048438;28;45768;-79
2022/05/23 10:33:14;;;;;;;;;20.50;19.25;;;;;19.77;64.36;99349.19;5053457;28;45600;-79
2022/05/23 10:36:04;;;;;;;;;22.25;21.75;;;;;19.61;64.38;99324.63;5051549;28;45724;-80
2022/05/23 10:42:07;;;;;;;;;20.75;20.50;;;;;19.71;64.71;99334.88;5040999;28;46117;-80
2022/05/23 10:44:32;;;;;;;;;20.50;19.50;;;;;19.74;65.50;99333.66;4988767;28;48821;-78
2022/05/23 10:47:09;;;;;;;;;25.00;21.25;;;;;19.76;65.54;99329.78;5006868;28;46006;-79
2022/05/23 10:49:58;;;;;;;;;24.75;22.75;;;;;19.72;65.20;99325.88;5002817;28;45749;-79
2022/05/23 10:52:27;;;;;;;;;24.75;22.50;;;;;19.71;65.74;99329.53;5006222;28;45847;-78
2022/05/23 10:55:03;;;;;;;;;22.75;21.00;;;;;19.66;65.91;99322.19;5009875;28;45888;-79
2022/05/23 10:57:44;;;;;;;;;24.00;23.00;;;;;19.58;65.70;99314.38;5010310;28;46191;-79
2022/05/23 11:00:17;;;;;;;;;23.00;21.50;;;;;19.62;65.19;99326.25;5009736;28;45736;-79
2022/05/23 11:03:01;;;;;;;;;23.50;23.00;;;;;19.56;65.56;99332.34;5002533;28;45711;-78
2022/05/23 11:06:10;;;;;;;;;21.50;19.00;;;;;19.50;65.91;99346.44;5010240;28;46899;-78
2022/05/23 11:08:45;;;;;;;;;21.25;20.00;;;;;19.46;65.91;99357.66;4984316;28;46062;-79
2022/05/23 11:11:25;;;;;;;;;22.75;22.00;;;;;19.42;66.00;99351.06;4984991;28;45824;-80
2022/05/23 11:14:08;;;;;;;;;21.75;21.25;;;;;19.41;66.63;99336.97;5010127;28;45674;-79
2022/05/23 11:16:52;;;;;;;;;26.25;24.75;;;;;19.40;66.79;99332.66;5010333;28;45778;-80
2022/05/23 11:19:20;;;;;;;;;22.50;22.25;;;;;19.37;66.85;99333.06;5009567;28;46210;-80
2022/05/23 11:22:14;;;;;;;;;24.25;23.00;;;;;19.32;67.25;99334.69;5029380;28;45874;-77
2022/05/23 11:25:05;;;;;;;;;25.25;24.00;;;;;19.22;68.34;99337.66;5038370;28;45766;-79
2022/05/23 11:36:07;;;;;;;;;24.00;23.50;;;;;18.98;70.31;99340.78;4990330;28;45748;-79
2022/05/23 11:38:33;;;;;;;;;27.00;24.00;;;;;18.99;70.74;99330.00;5010139;28;46468;-81
2022/05/23 11:41:33;;;;;;;;;25.75;24.75;;;;;19.01;71.21;99349.19;5008958;28;46072;-80
2022/05/23 11:44:10;;;;;;;;;23.75;23.75;;;;;19.05;71.04;99345.16;5010095;28;45755;-80
2022/05/23 11:47:05;;;;;;;;;25.00;23.00;;;;;19.09;71.32;99349.03;5009980;28;46042;-80
2022/05/23 11:49:46;;;;;;;;;22.00;19.00;;;;;19.13;70.34;99352.13;5009178;28;45778;-79
2022/05/23 11:52:31;;;;;;;;;22.75;21.00;;;;;19.05;70.65;99344.31;5009818;28;46203;-79
2022/05/23 11:54:57;;;;;;;;;24.75;23.75;;;;;19.05;70.48;99361.06;5010068;28;45701;-80
2022/05/23 11:57:37;;;;;;;;;24.00;23.00;;;;;19.05;70.49;99346.97;5009520;28;45869;-79
2022/05/23 12:00:06;;;;;;;;;21.50;21.25;;;;;19.00;70.63;99347.53;5009842;28;47384;-78
2022/05/23 12:02:38;;;;;;;;;22.00;21.00;;;;;19.00;70.80;99354.69;5009396;28;46335;-78
2022/05/23 12:05:09;;;;;;;;;22.00;21.75;;;;;18.98;70.37;99364.69;5039986;28;45706;-81
2022/05/23 12:07:34;;;;;;;;;26.50;25.75;;;;;18.94;71.33;99371.41;5052087;28;45682;-80
2022/05/23 12:10:25;;;;;;;;;20.50;19.25;;;;;18.91;70.10;99395.66;5052225;28;45953;-78
2022/05/23 12:12:52;;;;;;;;;15.00;15.00;;;;;18.76;70.77;99393.09;5053103;28;45723;-81
2022/05/23 12:15:48;;;;;;;;;18.50;18.00;;;;;18.61;71.37;99390.53;5057118;28;46065;-78
2022/05/23 12:18:22;;;;;;;;;20.50;19.50;;;;;18.51;71.26;99383.88;5055954;28;45575;-79
2022/05/23 12:20:52;;;;;;;;;17.00;16.00;;;;;18.39;71.82;99381.72;5054195;28;46869;-78
2022/05/23 12:23:36;;;;;;;;;20.50;18.00;;;;;18.39;71.99;99386.19;5055288;28;45716;-78
2022/05/23 12:26:10;;;;;;;;;18.50;18.25;;;;;18.37;71.39;99390.84;5054207;28;45620;-79
2022/05/23 12:28:45;;;;;;;;;20.50;18.00;;;;;18.29;71.48;99391.81;5044251;28;45707;-78
2022/05/23 12:31:16;;;;;;;;;22.75;21.50;;;;;18.18;71.47;99389.66;5052775;28;46017;-78
2022/05/23 12:34:01;;;;;;;;;18.75;17.75;;;;;18.12;71.44;99419.56;5053215;28;46295;-78
2022/05/23 12:36:29;;;;;;;;;21.75;20.25;;;;;18.03;71.42;99405.59;5052822;28;45812;-79
2022/05/23 12:38:54;;;;;;;;;19.25;18.25;;;;;17.99;71.95;99416.75;5054577;28;46054;-80
2022/05/23 12:41:53;;;;;;;;;22.00;19.75;;;;;17.93;71.92;99418.31;5055054;28;45910;-79
2022/05/23 12:44:50;;;;;;;;;24.00;21.25;;;;;17.83;71.94;99422.25;5036860;28;47138;-80